createdAt,value
2022-08-26T00:00:33.868Z,83.29
2022-08-26T00:02:09.377Z,83.19
2022-08-26T00:03:41.586Z,82.97
2022-08-26T00:05:13.693Z,83.35
2022-08-26T00:06:46.258Z,82.97
2022-08-26T00:08:20.663Z,83.16
2022-08-26T00:09:54.331Z,83.00
2022-08-26T00:11:28.135Z,83.21
2022-08-26T00:13:00.957Z,83.41
2022-08-26T00:14:33.050Z,83.28
2022-08-26T00:16:07.756Z,83.83
2022-08-26T00:17:40.273Z,83.56
2022-08-26T00:19:12.614Z,83.77
2022-08-26T00:20:45.235Z,83.87
2022-08-26T00:22:21.642Z,83.69
2022-08-26T00:23:53.758Z,83.56
2022-08-26T00:25:26.214Z,83.52
2022-08-26T00:26:58.531Z,83.73
2022-08-26T00:28:30.577Z,83.61
2022-08-26T00:30:05.746Z,83.33
2022-08-26T00:31:37.944Z,83.75
2022-08-26T00:33:11.176Z,83.44
2022-08-26T00:34:43.193Z,83.28
2022-08-26T00:36:20.110Z,83.69
2022-08-26T00:37:53.085Z,83.62
2022-08-26T00:39:25.225Z,83.75
2022-08-26T00:40:57.901Z,83.63
2022-08-26T00:42:30.826Z,83.29
2022-08-26T00:44:03.003Z,83.33
2022-08-26T00:45:50.356Z,83.23
2022-08-26T00:47:31.946Z,83.20
2022-08-26T00:49:14.369Z,83.22
2022-08-26T00:50:54.717Z,83.50
2022-08-26T00:52:27.057Z,83.33
2022-08-26T00:54:02.865Z,83.11
2022-08-26T00:55:38.267Z,83.30
2022-08-26T00:57:16.497Z,83.32
2022-08-26T00:58:48.898Z,83.70
2022-08-26T01:00:26.757Z,83.45
2022-08-26T01:01:58.943Z,83.94
2022-08-26T01:03:32.546Z,83.88
2022-08-26T01:05:07.978Z,84.07
2022-08-26T01:06:40.707Z,84.07
2022-08-26T01:08:16.361Z,84.12
2022-08-26T01:09:48.560Z,83.64
2022-08-26T01:11:21.713Z,83.68
2022-08-26T01:13:00.922Z,84.06
2022-08-26T01:14:34.823Z,84.34
2022-08-26T01:16:12.607Z,84.29
2022-08-26T01:17:44.664Z,84.24
2022-08-26T01:19:23.369Z,84.17
2022-08-26T01:21:13.643Z,84.12
2022-08-26T01:22:58.473Z,83.81
2022-08-26T01:24:33.823Z,84.12
2022-08-26T01:26:19.658Z,83.94
2022-08-26T01:27:53.456Z,83.88
2022-08-26T01:29:30.076Z,84.11
2022-08-26T01:31:03.941Z,84.33
2022-08-26T01:32:38.981Z,84.20
2022-08-26T01:34:22.766Z,84.00
2022-08-26T01:35:54.872Z,83.84
2022-08-26T01:37:29.976Z,83.98
2022-08-26T01:39:03.542Z,84.14
2022-08-26T01:42:17.482Z,83.99
2022-08-26T01:43:52.658Z,83.83
2022-08-26T01:45:27.434Z,84.03
2022-08-26T01:47:00.090Z,83.91
2022-08-26T01:48:34.869Z,84.11
2022-08-26T01:50:12.002Z,84.23
2022-08-26T01:51:44.767Z,84.45
2022-08-26T01:53:19.298Z,84.49
2022-08-26T01:54:54.456Z,84.43
2022-08-26T01:56:33.281Z,84.47
2022-08-26T01:58:12.135Z,84.02
2022-08-26T01:59:44.317Z,84.70
2022-08-26T02:01:16.817Z,84.24
2022-08-26T02:02:51.832Z,84.30
2022-08-26T02:05:00.369Z,83.56
2022-08-26T02:06:32.868Z,83.87
2022-08-26T02:08:06.359Z,83.93
2022-08-26T02:09:41.239Z,83.91
2022-08-26T02:12:46.370Z,83.63
2022-08-26T02:14:22.645Z,83.84
2022-08-26T02:15:55.634Z,83.84
2022-08-26T02:17:33.320Z,84.08
2022-08-26T02:19:11.657Z,84.50
2022-08-26T02:20:51.702Z,84.56
2022-08-26T02:22:24.860Z,84.38
2022-08-26T02:23:57.168Z,84.35
2022-08-26T02:25:55.809Z,84.02
2022-08-26T02:27:33.147Z,84.24
2022-08-26T02:29:28.473Z,83.92
2022-08-26T02:31:00.761Z,83.92
2022-08-26T02:32:34.893Z,84.19
2022-08-26T02:34:10.972Z,84.33
2022-08-26T02:35:43.616Z,84.21
2022-08-26T02:37:15.763Z,84.20
2022-08-26T02:38:49.919Z,84.46
2022-08-26T02:40:28.410Z,84.29
2022-08-26T02:42:00.645Z,84.37
2022-08-26T02:43:33.056Z,84.35
2022-08-26T02:45:06.619Z,84.56
2022-08-26T02:46:39.478Z,84.52
2022-08-26T02:48:18.800Z,84.35
2022-08-26T02:49:51.303Z,84.26
2022-08-26T02:51:23.330Z,84.20
2022-08-26T02:52:56.052Z,84.24
2022-08-26T02:54:28.272Z,84.49
2022-08-26T02:56:01.043Z,84.11
2022-08-26T02:57:33.602Z,83.86
2022-08-26T02:59:05.769Z,84.49
2022-08-26T03:00:39.755Z,84.30
2022-08-26T03:02:25.322Z,84.12
2022-08-26T03:03:58.302Z,84.37
2022-08-26T03:05:30.456Z,83.95
2022-08-26T03:07:03.289Z,84.34
2022-08-26T03:08:35.362Z,84.47
2022-08-26T03:10:08.496Z,84.36
2022-08-26T03:11:41.135Z,84.42
2022-08-26T03:13:13.577Z,84.80
2022-08-26T03:16:23.884Z,84.96
2022-08-26T03:17:56.173Z,84.81
2022-08-26T03:19:29.371Z,84.76
2022-08-26T03:21:15.209Z,84.63
2022-08-26T03:22:47.321Z,84.60
2022-08-26T03:24:21.063Z,84.70
2022-08-26T03:25:54.084Z,84.56
2022-08-26T03:27:26.139Z,84.84
2022-08-26T03:29:17.556Z,84.62
2022-08-26T03:30:49.622Z,84.52
2022-08-26T03:32:21.996Z,84.56
2022-08-26T03:33:59.984Z,84.98
2022-08-26T03:35:33.680Z,84.80
2022-08-26T03:37:05.886Z,85.11
2022-08-26T03:38:38.116Z,85.28
2022-08-26T03:40:11.882Z,84.87
2022-08-26T03:41:45.366Z,85.08
2022-08-26T03:43:18.010Z,85.21
2022-08-26T03:44:51.849Z,84.93
2022-08-26T03:46:24.039Z,85.00
2022-08-26T03:47:59.044Z,84.42
2022-08-26T03:49:32.156Z,84.51
2022-08-26T03:51:06.066Z,84.63
2022-08-26T03:52:43.045Z,84.95
2022-08-26T03:54:15.905Z,84.84
2022-08-26T03:55:47.981Z,84.96
2022-08-26T03:57:24.243Z,84.85
2022-08-26T03:58:56.434Z,85.00
2022-08-26T04:00:28.996Z,84.64
2022-08-26T04:02:04.209Z,84.43
2022-08-26T04:04:00.603Z,84.41
2022-08-26T04:05:33.045Z,84.62
2022-08-26T04:07:05.551Z,84.66
2022-08-26T04:08:38.539Z,84.84
2022-08-26T04:10:13.252Z,84.62
2022-08-26T04:11:46.013Z,84.50
2022-08-26T04:13:22.513Z,84.54
2022-08-26T04:14:54.643Z,84.68
2022-08-26T04:16:29.851Z,84.66
2022-08-26T04:18:02.405Z,84.67
2022-08-26T04:21:08.547Z,84.79
2022-08-26T04:22:42.853Z,85.14
2022-08-26T04:24:16.519Z,85.26
2022-08-26T04:25:49.814Z,85.22
2022-08-26T04:27:21.975Z,85.46
2022-08-26T04:28:55.695Z,85.37
2022-08-26T04:30:28.019Z,85.08
2022-08-26T04:32:00.646Z,85.18
2022-08-26T04:33:33.298Z,85.36
2022-08-26T04:35:06.248Z,85.33
2022-08-26T04:36:38.953Z,85.36
2022-08-26T04:38:11.738Z,85.81
2022-08-26T04:39:45.046Z,85.55
2022-08-26T04:41:18.809Z,85.42
2022-08-26T04:42:50.941Z,85.51
2022-08-26T04:44:25.268Z,85.83
2022-08-26T04:45:59.923Z,85.69
2022-08-26T04:47:34.690Z,85.84
2022-08-26T04:50:42.979Z,85.59
2022-08-26T04:52:15.741Z,85.72
2022-08-26T04:53:48.264Z,85.61
2022-08-26T04:55:25.308Z,85.68
2022-08-26T04:57:12.154Z,86.23
2022-08-26T04:58:44.312Z,86.36
2022-08-26T05:00:16.942Z,86.46
2022-08-26T05:01:51.849Z,86.75
2022-08-26T05:03:25.820Z,86.81
2022-08-26T05:04:59.169Z,87.16
2022-08-26T05:06:31.695Z,87.56
2022-08-26T05:08:13.158Z,87.11
2022-08-26T05:09:45.665Z,86.91
2022-08-26T05:11:17.972Z,86.70
2022-08-26T05:12:50.562Z,86.83
2022-08-26T05:14:23.522Z,87.48
2022-08-26T05:16:01.192Z,87.51
2022-08-26T05:17:33.708Z,87.82
2022-08-26T05:19:08.602Z,88.10
2022-08-26T05:20:49.426Z,88.13
2022-08-26T05:22:21.560Z,88.24
2022-08-26T05:23:55.469Z,88.36
2022-08-26T05:25:28.857Z,88.24
2022-08-26T05:27:03.451Z,88.19
2022-08-26T05:28:43.841Z,88.54
2022-08-26T05:30:16.364Z,88.19
2022-08-26T05:31:51.939Z,87.76
2022-08-26T05:33:24.815Z,87.65
2022-08-26T05:34:57.542Z,87.29
2022-08-26T05:36:33.946Z,87.19
2022-08-26T05:38:12.649Z,86.75
2022-08-26T05:39:51.158Z,86.61
2022-08-26T05:41:36.103Z,86.71
2022-08-26T05:43:12.551Z,86.50
2022-08-26T05:44:53.768Z,86.57
2022-08-26T05:46:28.848Z,86.34
2022-08-26T05:48:01.672Z,86.18
2022-08-26T05:49:34.040Z,85.50
2022-08-26T05:51:12.603Z,85.66
2022-08-26T05:52:45.071Z,85.63
2022-08-26T05:54:21.361Z,85.23
2022-08-26T05:55:56.573Z,84.87
2022-08-26T05:57:30.368Z,84.81
2022-08-26T05:59:03.177Z,84.82
2022-08-26T06:00:39.296Z,84.55
2022-08-26T06:02:14.099Z,84.52
2022-08-26T06:03:49.547Z,84.24
2022-08-26T06:05:22.750Z,84.01
2022-08-26T06:06:55.404Z,83.95
2022-08-26T06:08:27.655Z,83.56
2022-08-26T06:10:28.157Z,83.35
2022-08-26T06:11:52.136Z,83.25
2022-08-26T06:13:27.649Z,83.26
2022-08-26T06:15:04.558Z,83.16
2022-08-26T06:16:41.001Z,82.74
2022-08-26T06:18:15.610Z,82.68
2022-08-26T06:19:48.030Z,82.88
2022-08-26T06:21:26.025Z,82.28
2022-08-26T06:23:16.547Z,82.42
2022-08-26T06:25:07.241Z,81.96
2022-08-26T06:26:42.807Z,81.56
2022-08-26T06:28:17.673Z,81.46
2022-08-26T06:29:51.962Z,81.37
2022-08-26T06:31:25.774Z,80.52
2022-08-26T06:32:58.282Z,80.68
2022-08-26T06:34:31.551Z,80.81
2022-08-26T06:36:04.401Z,79.64
2022-08-26T06:37:37.594Z,79.93
2022-08-26T06:39:12.308Z,79.69
2022-08-26T06:40:48.986Z,79.15
2022-08-26T06:42:22.802Z,79.16
2022-08-26T06:43:55.193Z,78.23
2022-08-26T06:45:28.171Z,78.55
2022-08-26T06:47:00.615Z,77.83
2022-08-26T06:48:33.195Z,77.53
2022-08-26T06:50:05.633Z,76.41
2022-08-26T06:51:39.901Z,75.57
2022-08-26T06:53:13.919Z,74.44
2022-08-26T06:54:46.325Z,74.40
2022-08-26T06:56:22.681Z,74.61
2022-08-26T06:57:58.305Z,72.95
2022-08-26T06:59:31.554Z,70.44
2022-08-26T07:01:11.296Z,67.67
2022-08-26T07:02:46.144Z,66.42
2022-08-26T07:04:22.076Z,64.87
2022-08-26T07:05:55.031Z,65.03
2022-08-26T07:07:27.888Z,64.62
2022-08-26T07:09:04.415Z,64.88
2022-08-26T07:10:37.231Z,64.19
2022-08-26T07:12:10.225Z,63.91
2022-08-26T07:13:43.631Z,64.57
2022-08-26T07:15:16.127Z,65.75
2022-08-26T07:16:48.525Z,66.13
2022-08-26T07:18:21.797Z,66.42
2022-08-26T07:19:55.376Z,63.68
2022-08-26T07:21:27.615Z,65.92
2022-08-26T07:23:00.017Z,66.24
2022-08-26T07:24:36.878Z,66.78
2022-08-26T07:26:20.601Z,67.18
2022-08-26T07:27:54.284Z,65.85
2022-08-26T07:29:26.913Z,66.27
2022-08-26T07:31:00.084Z,66.08
2022-08-26T07:32:32.927Z,65.01
2022-08-26T07:34:06.775Z,65.56
2022-08-26T07:35:39.761Z,65.38
2022-08-26T07:37:12.445Z,63.43
2022-08-26T07:38:46.016Z,62.26
2022-08-26T07:40:20.378Z,63.89
2022-08-26T07:41:53.402Z,63.89
2022-08-26T07:43:25.782Z,64.10
2022-08-26T07:44:58.203Z,63.01
2022-08-26T07:46:30.564Z,62.58
2022-08-26T07:48:03.994Z,63.14
2022-08-26T07:49:36.889Z,62.01
2022-08-26T07:51:09.625Z,61.38
2022-08-26T07:52:42.909Z,61.99
2022-08-26T07:54:17.087Z,61.62
2022-08-26T07:55:49.820Z,62.51
2022-08-26T07:57:22.135Z,62.33
2022-08-26T07:58:56.836Z,62.73
2022-08-26T08:00:33.069Z,63.31
2022-08-26T08:02:05.386Z,61.87
2022-08-26T08:03:38.499Z,61.27
2022-08-26T08:05:11.984Z,60.91
2022-08-26T08:06:45.340Z,60.79
2022-08-26T08:08:27.930Z,61.58
2022-08-26T08:10:03.744Z,61.13
2022-08-26T08:11:38.037Z,61.71
2022-08-26T08:13:11.089Z,60.87
2022-08-26T08:14:45.799Z,60.58
2022-08-26T08:16:18.849Z,59.35
2022-08-26T08:17:51.775Z,58.21
2022-08-26T08:19:28.405Z,57.77
2022-08-26T08:21:21.610Z,57.22
2022-08-26T08:22:56.404Z,55.40
2022-08-26T08:24:30.032Z,55.42
2022-08-26T08:26:08.253Z,55.10
2022-08-26T08:27:41.647Z,55.04
2022-08-26T08:29:14.143Z,54.32
2022-08-26T08:30:47.676Z,54.17
2022-08-26T08:33:52.049Z,54.53
2022-08-26T08:35:26.818Z,54.00
2022-08-26T08:36:59.145Z,52.52
2022-08-26T08:38:32.298Z,53.14
2022-08-26T08:40:05.871Z,52.43
2022-08-26T08:41:58.564Z,51.38
2022-08-26T08:43:41.215Z,50.02
2022-08-26T08:45:18.729Z,50.02
2022-08-26T08:47:00.463Z,49.43
2022-08-26T08:48:36.647Z,51.58
2022-08-26T08:50:16.310Z,51.72
2022-08-26T08:51:57.106Z,53.11
2022-08-26T08:53:36.312Z,52.63
2022-08-26T08:55:11.051Z,50.93
2022-08-26T08:56:54.125Z,50.35
2022-08-26T08:58:57.851Z,51.98
2022-08-26T09:00:47.522Z,52.21
2022-08-26T09:02:58.156Z,50.93
2022-08-26T09:04:40.822Z,50.52
2022-08-26T09:06:20.897Z,49.01
2022-08-26T09:07:58.416Z,49.19
2022-08-26T09:09:38.176Z,48.33
2022-08-26T09:11:11.159Z,48.43
2022-08-26T09:12:44.020Z,46.26
2022-08-26T09:14:16.341Z,48.07
2022-08-26T09:15:58.428Z,50.31
2022-08-26T09:18:10.794Z,51.04
2022-08-26T09:19:52.844Z,48.77
2022-08-26T09:21:25.508Z,47.77
2022-08-26T09:22:58.013Z,48.29
2022-08-26T09:27:46.110Z,49.27
2022-08-26T09:29:28.417Z,47.04
2022-08-26T09:31:11.695Z,44.25
2022-08-26T09:32:44.864Z,45.72
2022-08-26T09:34:28.965Z,46.03
2022-08-26T09:36:26.804Z,47.02
2022-08-26T09:37:59.161Z,48.88
2022-08-26T09:39:35.112Z,47.51
2022-08-26T09:41:37.346Z,48.31
2022-08-26T09:43:25.537Z,47.40
2022-08-26T09:44:57.798Z,46.26
2022-08-26T09:46:30.618Z,45.82
2022-08-26T09:48:03.843Z,45.97
2022-08-26T09:49:39.517Z,45.91
2022-08-26T09:51:32.655Z,44.90
2022-08-26T09:53:14.984Z,43.03
2022-08-26T09:55:06.679Z,41.61
2022-08-26T09:56:40.357Z,43.72
2022-08-26T09:58:31.428Z,42.75
2022-08-26T10:00:23.750Z,46.70
2022-08-26T10:03:38.962Z,46.07
2022-08-26T10:05:18.376Z,46.02
2022-08-26T10:07:10.108Z,44.65
2022-08-26T10:08:47.604Z,43.89
2022-08-26T10:10:29.754Z,41.90
2022-08-26T10:12:08.704Z,43.34
2022-08-26T10:13:50.014Z,41.83
2022-08-26T10:15:24.189Z,41.72
2022-08-26T10:17:13.316Z,43.54
2022-08-26T10:19:19.330Z,43.39
2022-08-26T10:21:15.543Z,46.13
2022-08-26T10:22:58.985Z,44.28
2022-08-26T10:24:36.885Z,43.85
2022-08-26T10:26:24.763Z,43.87
2022-08-26T10:28:21.792Z,42.90
2022-08-26T10:30:00.715Z,41.14
2022-08-26T10:31:40.872Z,40.86
2022-08-26T10:33:18.923Z,41.57
2022-08-26T10:34:52.129Z,42.83
2022-08-26T10:37:14.753Z,42.46
2022-08-26T10:38:39.406Z,43.33
2022-08-26T10:40:24.758Z,44.89
2022-08-26T10:42:03.168Z,45.28
2022-08-26T10:44:13.165Z,45.64
2022-08-26T10:45:51.774Z,46.36
2022-08-26T10:47:35.943Z,45.59
2022-08-26T10:49:14.356Z,43.52
2022-08-26T10:50:47.706Z,43.43
2022-08-26T10:52:46.838Z,41.48
2022-08-26T10:54:27.925Z,40.16
2022-08-26T10:56:19.024Z,37.88
2022-08-26T10:58:00.014Z,39.39
2022-08-26T11:00:31.419Z,38.61
2022-08-26T11:02:32.470Z,44.95
2022-08-26T11:04:35.127Z,42.67
2022-08-26T11:06:25.926Z,41.53
2022-08-26T11:08:21.326Z,40.62
2022-08-26T11:11:46.952Z,39.77
2022-08-26T11:13:19.333Z,40.13
2022-08-26T11:14:56.173Z,39.58
2022-08-26T11:16:43.627Z,39.69
2022-08-26T11:18:40.884Z,37.67
2022-08-26T11:20:19.016Z,37.74
2022-08-26T11:22:06.743Z,40.19
2022-08-26T11:23:50.723Z,38.94
2022-08-26T11:25:29.965Z,39.92
2022-08-26T11:27:03.277Z,40.29
2022-08-26T11:28:50.543Z,39.46
2022-08-26T11:30:24.158Z,37.64
2022-08-26T11:31:57.168Z,37.25
2022-08-26T11:33:51.587Z,40.85
2022-08-26T11:35:24.500Z,40.50
2022-08-26T11:36:58.270Z,40.67
2022-08-26T11:38:31.288Z,41.29
2022-08-26T11:40:09.231Z,41.67
2022-08-26T11:41:46.964Z,42.09
2022-08-26T11:43:22.792Z,40.28
2022-08-26T11:46:36.280Z,38.86
2022-08-26T11:48:18.631Z,34.23
2022-08-26T11:49:50.894Z,36.82
2022-08-26T11:51:25.008Z,37.55
2022-08-26T11:53:02.464Z,39.59
2022-08-26T11:54:35.497Z,40.01
2022-08-26T11:56:18.288Z,39.44
2022-08-26T11:58:01.789Z,38.78
2022-08-26T11:59:39.582Z,38.40
2022-08-26T12:01:14.441Z,37.69
2022-08-26T12:02:50.502Z,38.41
2022-08-26T12:04:35.403Z,39.89
2022-08-26T12:06:23.705Z,39.50
2022-08-26T12:07:56.056Z,38.30
2022-08-26T12:22:43.640Z,36.89
2022-08-26T12:24:21.017Z,33.69
2022-08-26T12:26:02.614Z,33.75
2022-08-26T12:27:41.927Z,33.35
2022-08-26T12:29:28.129Z,37.06
2022-08-26T12:49:48.684Z,35.29
2022-08-26T12:51:32.634Z,33.76
2022-08-26T12:53:10.837Z,35.07
2022-08-26T13:55:28.894Z,35.22
2022-08-26T13:57:01.446Z,36.00
2022-08-26T13:58:33.582Z,35.40
2022-08-26T14:00:07.404Z,36.83
2022-08-26T14:01:43.436Z,31.59
2022-08-26T14:03:15.871Z,30.95
2022-08-26T14:04:48.206Z,30.59
2022-08-26T14:06:21.030Z,31.27
2022-08-26T14:07:53.952Z,30.79
2022-08-26T14:09:26.129Z,31.83
2022-08-26T14:10:59.067Z,31.24
2022-08-26T14:12:31.254Z,30.27
2022-08-26T14:14:03.690Z,30.17
2022-08-26T14:15:36.693Z,30.09
2022-08-26T14:17:08.742Z,30.35
2022-08-26T14:18:45.211Z,31.14
2022-08-26T14:20:31.081Z,32.05
2022-08-26T14:22:03.855Z,32.61
2022-08-26T14:23:36.228Z,32.84
2022-08-26T14:25:09.019Z,33.44
2022-08-26T14:26:42.192Z,32.11
2022-08-26T14:28:14.694Z,31.95
2022-08-26T14:29:47.289Z,30.86
2022-08-26T14:31:19.934Z,31.40
2022-08-26T14:32:56.307Z,33.71
2022-08-26T14:34:28.846Z,32.41
2022-08-26T14:36:19.890Z,30.88
2022-08-26T14:37:53.145Z,31.48
2022-08-26T14:39:25.169Z,30.30
2022-08-26T14:40:57.965Z,33.49
2022-08-26T14:42:31.510Z,29.50
2022-08-26T14:44:07.655Z,30.83
2022-08-26T14:47:15.139Z,31.34
2022-08-26T14:48:47.504Z,30.43
2022-08-26T14:50:23.178Z,29.69
2022-08-26T14:51:55.997Z,31.68
2022-08-26T14:53:46.881Z,31.52
2022-08-26T14:55:19.551Z,31.02
2022-08-26T14:56:59.650Z,30.13
2022-08-26T14:58:33.764Z,30.81
2022-08-26T15:00:08.388Z,31.16
2022-08-26T15:01:44.507Z,31.34
2022-08-26T15:04:49.575Z,28.93
2022-08-26T15:06:21.975Z,32.73
2022-08-26T15:07:54.514Z,31.94
2022-08-26T15:24:59.145Z,37.84
2022-08-26T15:26:32.313Z,37.87
2022-08-26T15:28:05.095Z,37.24
2022-08-26T15:29:37.825Z,36.26
2022-08-26T15:31:10.237Z,37.45
2022-08-26T15:32:42.772Z,37.53
2022-08-26T15:34:16.945Z,36.69
2022-08-26T15:35:49.694Z,37.61
2022-08-26T15:37:22.427Z,38.22
2022-08-26T15:38:54.989Z,37.06
2022-08-26T15:54:28.960Z,37.67
2022-08-26T15:56:02.068Z,39.37
2022-08-26T15:57:34.575Z,42.80
2022-08-26T15:59:08.467Z,43.58
2022-08-26T16:00:41.772Z,45.35
2022-08-26T16:02:14.326Z,45.86
2022-08-26T16:03:46.761Z,43.92
2022-08-26T16:05:19.776Z,44.95
2022-08-26T16:06:52.619Z,46.61
2022-08-26T16:08:24.828Z,46.81
2022-08-26T16:10:00.690Z,47.60
2022-08-26T16:11:34.137Z,49.32
2022-08-26T16:13:08.400Z,49.70
2022-08-26T16:14:42.736Z,49.96
2022-08-26T16:16:15.812Z,50.70
2022-08-26T16:17:47.913Z,51.23
2022-08-26T16:19:20.475Z,49.89
2022-08-26T16:20:55.304Z,49.65
2022-08-26T16:22:45.253Z,49.85
2022-08-26T16:24:18.867Z,50.01
2022-08-26T16:25:51.688Z,51.77
2022-08-26T16:27:24.206Z,53.48
2022-08-26T17:08:06.339Z,61.39
2022-08-26T17:09:41.489Z,60.97
2022-08-26T17:11:14.160Z,61.22
2022-08-26T17:12:46.659Z,61.36
2022-08-26T17:14:19.627Z,61.67
2022-08-26T17:15:58.321Z,61.58
2022-08-26T17:17:32.335Z,61.35
2022-08-26T17:19:05.681Z,61.44
2022-08-26T17:20:38.600Z,61.91
2022-08-26T17:22:11.377Z,62.09
2022-08-26T17:23:44.076Z,62.60
2022-08-26T17:25:32.439Z,62.53
2022-08-26T17:27:04.980Z,62.00
2022-08-26T17:28:37.387Z,62.35
2022-08-26T17:30:10.663Z,63.48
2022-08-26T17:31:43.593Z,63.89
2022-08-26T17:33:17.222Z,64.18
2022-08-26T17:34:54.576Z,64.55
2022-08-26T17:36:28.154Z,64.40
2022-08-26T17:38:01.279Z,64.61
2022-08-26T17:39:33.481Z,64.83
2022-08-26T17:41:13.760Z,65.26
2022-08-26T18:25:59.961Z,68.16
2022-08-26T18:27:32.435Z,68.63
2022-08-26T18:29:05.987Z,68.59
2022-08-26T18:30:38.539Z,68.56
2022-08-26T18:32:11.102Z,68.76
2022-08-26T18:33:43.603Z,68.97
2022-08-26T18:35:16.067Z,69.26
2022-08-26T18:36:48.680Z,69.12
2022-08-26T18:38:21.187Z,69.22
2022-08-26T18:39:54.792Z,69.39
2022-08-26T18:41:34.226Z,69.13
2022-08-26T18:43:06.874Z,70.26
2022-08-26T18:44:39.253Z,69.84
2022-08-26T18:46:14.744Z,69.99
2022-08-26T18:47:47.276Z,70.20
2022-08-26T18:49:21.469Z,70.14
2022-08-26T18:50:55.266Z,70.15
2022-08-26T18:52:28.067Z,69.58
2022-08-26T18:54:02.297Z,68.95
2022-08-26T18:55:34.849Z,69.76
2022-08-26T19:09:31.749Z,70.99
2022-08-26T19:11:04.349Z,71.36
2022-08-26T19:12:39.003Z,71.88
2022-08-26T19:14:16.471Z,71.18
2022-08-26T19:15:48.945Z,70.84
2022-08-26T19:17:22.721Z,70.24
2022-08-26T19:18:56.045Z,69.91
2022-08-26T19:20:28.379Z,70.23
2022-08-26T19:22:01.293Z,70.89
2022-08-26T19:39:16.354Z,72.74
2022-08-26T19:46:32.321Z,72.94
2022-08-26T19:48:04.972Z,73.29
2022-08-26T19:49:38.215Z,73.39
2022-08-26T19:51:17.335Z,73.69
2022-08-26T19:52:49.985Z,73.99
2022-08-26T20:40:29.756Z,75.20
2022-08-26T20:42:02.111Z,75.23
2022-08-26T20:43:34.251Z,75.83
2022-08-26T20:45:08.328Z,75.91
2022-08-26T20:46:41.074Z,75.90
2022-08-26T20:48:13.544Z,75.94
2022-08-26T20:49:46.971Z,76.15
2022-08-26T20:51:24.712Z,75.84
2022-08-26T20:52:56.841Z,75.60
2022-08-26T21:10:10.152Z,76.52
2022-08-26T21:11:44.630Z,76.50
2022-08-26T21:13:17.089Z,76.72
2022-08-26T22:01:36.470Z,76.50
2022-08-26T22:03:08.531Z,76.68
2022-08-26T22:04:48.111Z,76.79
2022-08-26T22:06:23.887Z,77.02
2022-08-26T22:07:56.353Z,77.52
2022-08-26T22:09:31.390Z,77.47
2022-08-26T22:11:04.322Z,77.26
2022-08-26T22:12:36.458Z,77.43
2022-08-26T22:14:09.013Z,77.37
2022-08-26T22:15:41.332Z,77.51
2022-08-26T22:17:13.510Z,77.58
2022-08-26T22:18:46.043Z,77.27
2022-08-26T22:20:18.179Z,77.39
2022-08-26T22:21:51.566Z,77.47
2022-08-26T23:11:09.910Z,78.16
2022-08-26T23:12:42.179Z,78.35
2022-08-26T23:14:14.441Z,78.17
2022-08-26T23:19:16.029Z,78.16
2022-08-26T23:24:01.326Z,78.45
2022-08-26T23:25:33.738Z,78.44
2022-08-26T23:27:05.970Z,78.29
2022-08-26T23:28:38.818Z,78.08
2022-08-26T23:30:15.072Z,78.50
2022-08-26T23:31:49.523Z,78.31
2022-08-26T23:33:21.881Z,78.30
2022-08-26T23:34:56.869Z,78.21
2022-08-26T23:36:29.077Z,78.23
2022-08-26T23:38:02.988Z,78.40
2022-08-26T23:39:37.000Z,78.11
2022-08-26T23:41:09.074Z,78.13
